createdAt,value
2022-08-03T00:00:39.553Z,22.61
2022-08-03T00:03:09.483Z,22.68
2022-08-03T00:05:38.380Z,22.66
2022-08-03T00:08:07.167Z,22.63
2022-08-03T00:10:35.911Z,22.66
2022-08-03T00:13:04.524Z,22.67
2022-08-03T00:15:33.036Z,22.75
2022-08-03T00:18:01.628Z,22.71
2022-08-03T00:20:31.442Z,22.70
2022-08-03T00:22:59.880Z,22.72
2022-08-03T00:25:28.495Z,22.63
2022-08-03T00:27:56.959Z,22.52
2022-08-03T00:30:26.903Z,22.49
2022-08-03T00:32:59.948Z,22.48
2022-08-03T00:35:49.213Z,22.49
2022-08-03T00:38:19.388Z,22.46
2022-08-03T00:40:47.965Z,22.45
2022-08-03T00:43:16.450Z,22.41
2022-08-03T00:45:45.216Z,22.34
2022-08-03T00:48:32.202Z,22.29
2022-08-03T00:51:03.728Z,22.24
2022-08-03T00:53:35.797Z,22.16
2022-08-03T00:56:04.401Z,22.07
2022-08-03T00:58:32.929Z,22.01
2022-08-03T01:01:01.513Z,21.99
2022-08-03T01:03:30.021Z,21.95
2022-08-03T01:06:05.154Z,21.89
2022-08-03T01:08:43.885Z,21.81
2022-08-03T01:11:20.367Z,21.90
2022-08-03T01:14:01.364Z,21.92
2022-08-03T01:16:56.900Z,21.89
2022-08-03T01:19:39.987Z,21.90
2022-08-03T01:22:24.379Z,21.93
2022-08-03T01:25:02.473Z,21.92
2022-08-03T01:27:36.643Z,21.88
2022-08-03T01:30:09.300Z,21.87
2022-08-03T01:33:03.099Z,21.86
2022-08-03T01:35:38.799Z,21.86
2022-08-03T01:38:12.950Z,21.80
2022-08-03T01:40:42.966Z,21.74
2022-08-03T01:43:55.494Z,21.73
2022-08-03T01:46:09.968Z,21.80
2022-08-03T01:48:40.343Z,21.82
2022-08-03T01:51:10.591Z,21.72
2022-08-03T01:53:42.806Z,21.70
2022-08-03T01:56:12.959Z,21.67
2022-08-03T01:58:43.106Z,21.66
2022-08-03T02:01:14.818Z,21.63
2022-08-03T02:03:59.478Z,21.61
2022-08-03T02:06:59.814Z,21.57
2022-08-03T02:09:24.727Z,21.51
2022-08-03T02:11:56.000Z,21.46
2022-08-03T02:14:25.032Z,21.37
2022-08-03T02:16:57.075Z,21.29
2022-08-03T02:19:27.138Z,21.24
2022-08-03T02:22:01.076Z,21.26
2022-08-03T02:24:30.653Z,21.27
2022-08-03T02:27:02.263Z,21.24
2022-08-03T02:29:39.103Z,21.14
2022-08-03T02:32:18.396Z,21.10
2022-08-03T02:34:52.729Z,21.01
2022-08-03T02:37:25.094Z,21.04
2022-08-03T02:39:59.051Z,20.95
2022-08-03T02:42:29.739Z,20.94
2022-08-03T02:45:02.055Z,20.99
2022-08-03T02:47:53.396Z,21.02
2022-08-03T02:50:24.579Z,21.03
2022-08-03T02:52:54.186Z,21.01
2022-08-03T02:55:24.950Z,20.95
2022-08-03T02:57:54.847Z,20.90
2022-08-03T03:00:28.135Z,20.83
2022-08-03T03:03:01.094Z,20.77
2022-08-03T03:05:53.197Z,20.75
2022-08-03T03:08:25.815Z,20.81
2022-08-03T03:10:56.838Z,20.84
2022-08-03T03:13:26.507Z,20.81
2022-08-03T03:15:57.710Z,20.74
2022-08-03T03:18:29.689Z,20.70
2022-08-03T03:21:00.083Z,20.72
2022-08-03T03:23:30.033Z,20.81
2022-08-03T03:26:00.214Z,20.85
2022-08-03T03:28:29.735Z,20.86
2022-08-03T03:30:58.643Z,20.87
2022-08-03T03:33:28.776Z,20.83
2022-08-03T03:35:58.818Z,20.70
2022-08-03T03:38:27.389Z,20.62
2022-08-03T03:40:56.505Z,20.62
2022-08-03T03:43:25.951Z,20.60
2022-08-03T03:45:56.129Z,20.50
2022-08-03T03:48:26.448Z,20.35
2022-08-03T03:50:57.360Z,20.20
2022-08-03T03:53:26.365Z,20.16
2022-08-03T03:55:59.518Z,20.23
2022-08-03T03:58:33.240Z,20.29
2022-08-03T04:01:02.354Z,20.35
2022-08-03T04:03:31.094Z,20.40
2022-08-03T04:06:18.567Z,20.44
2022-08-03T04:09:04.836Z,20.41
2022-08-03T04:11:39.218Z,20.39
2022-08-03T04:14:12.190Z,20.49
2022-08-03T04:16:45.117Z,20.57
2022-08-03T04:19:23.140Z,20.61
2022-08-03T04:21:58.806Z,20.63
2022-08-03T04:24:31.737Z,20.65
2022-08-03T04:27:02.090Z,20.72
2022-08-03T04:29:32.214Z,20.75
2022-08-03T04:32:03.130Z,20.79
2022-08-03T04:34:32.257Z,20.80
2022-08-03T04:37:07.145Z,20.81
2022-08-03T04:39:38.258Z,20.85
2022-08-03T04:42:09.341Z,20.88
2022-08-03T04:44:41.093Z,20.91
2022-08-03T04:47:09.703Z,20.96
2022-08-03T04:49:39.327Z,21.01
2022-08-03T04:52:10.963Z,21.02
2022-08-03T04:54:48.788Z,21.03
2022-08-03T04:57:22.101Z,21.01
2022-08-03T04:59:58.259Z,21.01
2022-08-03T05:02:31.331Z,21.02
2022-08-03T05:05:00.119Z,21.01
2022-08-03T05:07:35.538Z,21.01
2022-08-03T05:10:11.711Z,21.02
2022-08-03T05:12:46.887Z,21.03
2022-08-03T05:15:15.916Z,20.99
2022-08-03T05:17:44.810Z,21.00
2022-08-03T05:20:13.833Z,21.00
2022-08-03T05:22:48.026Z,21.04
2022-08-03T05:25:16.909Z,21.07
2022-08-03T05:27:47.914Z,21.12
2022-08-03T05:30:31.024Z,21.18
2022-08-03T05:33:04.561Z,21.19
2022-08-03T05:36:02.061Z,21.22
2022-08-03T05:38:34.387Z,21.24
2022-08-03T05:41:21.558Z,21.28
2022-08-03T05:43:53.739Z,21.30
2022-08-03T05:46:22.726Z,21.32
2022-08-03T05:48:51.338Z,21.37
2022-08-03T05:51:19.760Z,21.39
2022-08-03T05:53:49.643Z,21.37
2022-08-03T05:56:18.135Z,21.37
2022-08-03T05:58:48.000Z,21.43
2022-08-03T06:01:17.165Z,21.53
2022-08-03T06:03:46.118Z,21.58
2022-08-03T06:06:15.073Z,21.62
2022-08-03T06:08:44.735Z,21.71
2022-08-03T06:11:14.619Z,21.77
2022-08-03T06:13:43.470Z,21.89
2022-08-03T06:16:11.978Z,21.92
2022-08-03T06:18:41.151Z,21.93
2022-08-03T06:21:15.336Z,21.96
2022-08-03T06:23:54.499Z,22.00
2022-08-03T06:26:27.761Z,22.05
2022-08-03T06:28:56.842Z,22.08
2022-08-03T06:31:33.054Z,22.14
2022-08-03T06:34:33.405Z,22.21
2022-08-03T06:36:58.449Z,22.30
2022-08-03T06:39:30.614Z,22.43
2022-08-03T06:42:00.485Z,22.55
2022-08-03T06:44:28.971Z,22.70
2022-08-03T06:46:57.606Z,22.80
2022-08-03T06:49:26.172Z,22.89
2022-08-03T06:52:05.802Z,22.95
2022-08-03T06:54:37.226Z,23.02
2022-08-03T06:57:09.753Z,23.04
2022-08-03T07:00:09.188Z,23.06
2022-08-03T07:02:28.531Z,23.06
2022-08-03T07:04:57.815Z,23.06
2022-08-03T07:07:26.407Z,23.11
2022-08-03T07:09:57.527Z,23.22
2022-08-03T07:12:29.586Z,23.31
2022-08-03T07:15:01.187Z,23.39
2022-08-03T07:17:32.212Z,23.49
2022-08-03T07:20:01.586Z,23.53
2022-08-03T07:22:30.444Z,23.59
2022-08-03T07:24:59.217Z,23.69
2022-08-03T07:27:30.400Z,23.78
2022-08-03T07:30:00.010Z,23.86
2022-08-03T07:32:31.484Z,23.93
2022-08-03T07:35:01.396Z,24.00
2022-08-03T07:37:31.199Z,24.04
2022-08-03T07:40:00.727Z,24.13
2022-08-03T07:42:30.927Z,24.18
2022-08-03T07:45:00.032Z,24.27
2022-08-03T07:47:35.483Z,24.34
2022-08-03T07:50:06.562Z,24.43
2022-08-03T07:52:50.769Z,24.50
2022-08-03T07:55:20.857Z,24.57
2022-08-03T07:58:01.183Z,24.65
2022-08-03T08:00:30.444Z,24.72
2022-08-03T08:02:59.069Z,24.78
2022-08-03T08:05:27.984Z,24.84
2022-08-03T08:07:57.184Z,24.90
2022-08-03T08:10:25.863Z,24.94
2022-08-03T08:12:56.229Z,25.01
2022-08-03T08:15:24.956Z,25.06
2022-08-03T08:17:54.957Z,25.11
2022-08-03T08:20:30.714Z,25.16
2022-08-03T08:23:02.714Z,25.23
2022-08-03T08:25:32.305Z,25.29
2022-08-03T08:28:31.517Z,25.35
2022-08-03T08:30:52.950Z,25.40
2022-08-03T08:33:23.536Z,25.43
2022-08-03T08:35:54.234Z,25.51
2022-08-03T08:38:23.647Z,25.57
2022-08-03T08:40:52.752Z,25.64
2022-08-03T08:43:22.852Z,25.71
2022-08-03T08:45:53.549Z,25.79
2022-08-03T08:48:27.060Z,25.85
2022-08-03T08:50:56.812Z,25.93
2022-08-03T08:53:29.147Z,26.00
2022-08-03T08:56:01.489Z,26.08
2022-08-03T08:58:35.977Z,26.16
2022-08-03T09:01:05.326Z,26.22
2022-08-03T09:03:34.609Z,26.29
2022-08-03T09:06:03.524Z,26.35
2022-08-03T09:08:33.571Z,26.42
2022-08-03T09:11:02.963Z,26.49
2022-08-03T09:13:34.809Z,26.57
2022-08-03T09:16:14.561Z,26.62
2022-08-03T09:18:44.243Z,26.70
2022-08-03T09:21:37.274Z,26.75
2022-08-03T09:24:16.574Z,26.84
2022-08-03T09:26:54.586Z,26.91
2022-08-03T09:29:24.583Z,26.95
2022-08-03T09:32:02.525Z,27.03
2022-08-03T09:34:31.440Z,27.12
2022-08-03T09:36:59.981Z,27.18
2022-08-03T09:39:41.239Z,27.26
2022-08-03T09:42:14.715Z,27.34
2022-08-03T09:44:46.458Z,27.39
2022-08-03T09:47:16.700Z,27.47
2022-08-03T09:49:59.039Z,27.52
2022-08-03T09:52:50.019Z,27.55
2022-08-03T09:56:32.861Z,27.60
2022-08-03T09:58:12.768Z,27.75
2022-08-03T10:00:56.977Z,27.92
2022-08-03T10:03:27.495Z,28.11
2022-08-03T10:05:59.833Z,28.25
2022-08-03T10:08:28.700Z,28.39
2022-08-03T10:10:58.736Z,28.52
2022-08-03T10:13:27.495Z,28.66
2022-08-03T10:16:21.711Z,28.77
2022-08-03T10:18:49.791Z,28.90
2022-08-03T10:21:20.823Z,29.01
2022-08-03T10:23:50.878Z,29.10
2022-08-03T10:26:23.677Z,29.21
2022-08-03T10:28:56.521Z,29.32
2022-08-03T10:31:27.488Z,29.40
2022-08-03T10:33:59.155Z,29.47
2022-08-03T10:36:31.583Z,29.57
2022-08-03T10:39:02.429Z,29.67
2022-08-03T10:41:36.249Z,29.74
2022-08-03T10:44:07.908Z,29.84
2022-08-03T10:46:44.691Z,29.89
2022-08-03T10:49:15.238Z,29.93
2022-08-03T10:51:45.642Z,29.99
2022-08-03T10:54:59.766Z,30.10
2022-08-03T10:57:45.852Z,30.20
2022-08-03T11:00:19.075Z,30.31
2022-08-03T11:03:07.380Z,30.35
2022-08-03T11:05:38.871Z,30.41
2022-08-03T11:08:25.268Z,30.50
2022-08-03T11:10:55.275Z,30.59
2022-08-03T11:13:25.058Z,30.65
2022-08-03T11:16:01.749Z,30.73
2022-08-03T11:18:33.772Z,30.82
2022-08-03T11:21:02.627Z,30.90
2022-08-03T11:24:04.334Z,30.98
2022-08-03T11:26:34.307Z,31.05
2022-08-03T11:29:27.964Z,31.08
2022-08-03T11:31:56.633Z,31.10
2022-08-03T11:34:27.055Z,31.13
2022-08-03T11:37:22.605Z,31.16
2022-08-03T11:39:54.488Z,31.30
2022-08-03T11:42:48.062Z,31.41
2022-08-03T11:45:16.569Z,31.51
2022-08-03T11:47:51.119Z,31.58
2022-08-03T11:50:22.167Z,31.64
2022-08-03T11:52:51.427Z,31.70
2022-08-03T11:55:22.141Z,31.75
2022-08-03T11:59:01.901Z,31.81
2022-08-03T12:00:40.599Z,31.85
2022-08-03T12:03:11.960Z,31.91
2022-08-03T12:05:51.167Z,31.97
2022-08-03T12:08:32.396Z,32.01
2022-08-03T12:11:05.752Z,32.06
2022-08-03T12:14:36.707Z,32.12
2022-08-03T12:16:30.687Z,32.20
2022-08-03T12:19:00.628Z,32.26
2022-08-03T12:21:31.296Z,32.30
2022-08-03T12:24:00.889Z,32.38
2022-08-03T12:26:30.430Z,32.42
2022-08-03T12:28:58.983Z,32.47
2022-08-03T12:31:27.657Z,32.54
2022-08-03T12:33:58.885Z,32.60
2022-08-03T12:36:28.680Z,32.64
2022-08-03T12:39:00.719Z,32.66
2022-08-03T12:41:35.307Z,32.69
2022-08-03T12:44:05.941Z,32.74
2022-08-03T12:46:36.062Z,32.83
2022-08-03T12:49:08.383Z,32.87
2022-08-03T12:51:39.939Z,32.83
2022-08-03T12:54:10.468Z,32.88
2022-08-03T12:56:58.787Z,32.96
2022-08-03T12:59:32.504Z,33.02
2022-08-03T13:02:09.512Z,33.05
2022-08-03T13:04:38.417Z,33.10
2022-08-03T13:07:14.352Z,33.15
2022-08-03T13:09:47.161Z,33.17
2022-08-03T13:12:17.167Z,33.22
2022-08-03T13:14:48.692Z,33.27
2022-08-03T13:17:18.190Z,33.30
2022-08-03T13:19:48.633Z,33.30
2022-08-03T13:22:19.622Z,33.33
2022-08-03T13:24:51.472Z,33.33
2022-08-03T13:28:02.022Z,33.31
2022-08-03T13:30:10.259Z,33.35
2022-08-03T13:32:38.876Z,33.42
2022-08-03T13:35:08.833Z,33.45
2022-08-03T13:37:38.745Z,33.47
2022-08-03T13:40:11.601Z,33.53
2022-08-03T13:42:40.423Z,33.55
2022-08-03T13:45:10.491Z,33.55
2022-08-03T13:47:39.015Z,33.55
2022-08-03T13:50:08.155Z,33.55
2022-08-03T13:52:37.202Z,33.58
2022-08-03T13:55:09.295Z,33.62
2022-08-03T13:58:05.705Z,33.64
2022-08-03T14:00:29.352Z,33.67
2022-08-03T14:03:13.846Z,33.69
2022-08-03T14:05:43.030Z,33.71
2022-08-03T14:08:12.000Z,33.76
2022-08-03T14:10:44.233Z,33.78
2022-08-03T14:13:16.881Z,33.83
2022-08-03T14:15:49.936Z,33.88
2022-08-03T14:18:27.705Z,33.87
2022-08-03T14:21:07.299Z,33.91
2022-08-03T14:23:38.089Z,33.95
2022-08-03T14:26:09.939Z,33.97
2022-08-03T14:28:38.465Z,33.98
2022-08-03T14:31:08.422Z,33.99
2022-08-03T14:33:55.423Z,34.02
2022-08-03T14:36:24.279Z,34.02
2022-08-03T14:38:52.840Z,34.03
2022-08-03T14:41:22.847Z,34.05
2022-08-03T14:44:02.000Z,34.05
2022-08-03T14:46:32.159Z,34.03
2022-08-03T14:50:28.893Z,34.06
2022-08-03T14:51:53.826Z,34.07
2022-08-03T14:54:23.653Z,34.04
2022-08-03T14:56:53.718Z,34.09
2022-08-03T14:59:22.311Z,34.13
2022-08-03T15:02:02.108Z,34.16
2022-08-03T15:04:32.280Z,34.17
2022-08-03T15:07:00.788Z,34.17
2022-08-03T15:09:29.396Z,34.18
2022-08-03T15:11:59.337Z,34.19
2022-08-03T15:14:28.338Z,34.20
2022-08-03T15:17:01.665Z,34.20
2022-08-03T15:20:00.985Z,34.19
2022-08-03T15:22:20.767Z,34.18
2022-08-03T15:24:53.872Z,34.10
2022-08-03T15:27:24.277Z,33.96
2022-08-03T15:30:09.021Z,33.89
2022-08-03T15:32:38.820Z,33.84
2022-08-03T15:35:07.806Z,33.83
2022-08-03T15:37:36.807Z,33.77
2022-08-03T15:40:06.656Z,33.72
2022-08-03T15:42:36.496Z,33.67
2022-08-03T15:45:05.607Z,33.62
2022-08-03T15:47:34.116Z,33.55
2022-08-03T15:50:06.542Z,33.53
2022-08-03T15:52:38.139Z,33.51
2022-08-03T15:55:07.648Z,33.48
2022-08-03T15:59:04.339Z,33.40
2022-08-03T16:00:33.508Z,33.34
2022-08-03T16:03:02.727Z,33.32
2022-08-03T16:05:31.296Z,33.27
2022-08-03T16:08:03.805Z,33.20
2022-08-03T16:10:33.812Z,33.19
2022-08-03T16:13:03.820Z,33.17
2022-08-03T16:15:32.398Z,33.15
2022-08-03T16:18:07.241Z,33.14
2022-08-03T16:20:35.824Z,33.11
2022-08-03T16:23:10.333Z,33.09
2022-08-03T16:25:40.463Z,33.10
2022-08-03T16:28:14.611Z,33.10
2022-08-03T16:30:45.244Z,33.11
2022-08-03T16:33:17.451Z,33.10
2022-08-03T16:35:46.780Z,33.14
2022-08-03T16:38:18.880Z,33.13
2022-08-03T16:40:51.613Z,33.13
2022-08-03T16:43:23.193Z,33.12
2022-08-03T16:45:52.228Z,33.10
2022-08-03T16:48:21.171Z,33.08
2022-08-03T16:50:49.720Z,33.06
2022-08-03T16:53:18.734Z,33.03
2022-08-03T16:56:06.715Z,32.99
2022-08-03T16:58:42.394Z,32.95
2022-08-03T17:01:22.122Z,32.91
2022-08-03T17:04:01.698Z,32.91
2022-08-03T17:06:35.987Z,32.87
2022-08-03T17:09:08.739Z,32.84
2022-08-03T17:11:43.961Z,32.82
2022-08-03T17:14:14.803Z,32.80
2022-08-03T17:16:52.939Z,32.76
2022-08-03T17:19:24.922Z,32.74
2022-08-03T17:22:01.234Z,32.65
2022-08-03T17:24:33.343Z,32.53
2022-08-03T17:27:04.170Z,32.43
2022-08-03T17:29:47.367Z,32.32
2022-08-03T17:32:19.684Z,32.23
2022-08-03T17:34:50.258Z,32.10
2022-08-03T17:37:49.995Z,31.96
2022-08-03T17:40:17.487Z,31.77
2022-08-03T17:42:50.671Z,31.63
2022-08-03T17:45:21.306Z,31.50
2022-08-03T17:47:57.579Z,31.38
2022-08-03T17:50:47.961Z,31.23
2022-08-03T17:53:23.616Z,31.14
2022-08-03T17:56:38.702Z,31.05
2022-08-03T17:59:08.559Z,30.96
2022-08-03T18:02:12.238Z,30.87
2022-08-03T18:04:55.520Z,30.76
2022-08-03T18:07:41.059Z,30.71
2022-08-03T18:10:11.383Z,30.62
2022-08-03T18:12:52.218Z,30.56
2022-08-03T18:15:27.952Z,30.50
2022-08-03T18:18:10.404Z,30.42
2022-08-03T18:20:41.969Z,30.35
2022-08-03T18:23:24.676Z,30.28
2022-08-03T18:26:02.803Z,30.18
2022-08-03T18:28:34.978Z,30.10
2022-08-03T18:31:05.665Z,30.03
2022-08-03T18:34:32.218Z,29.99
2022-08-03T18:36:31.124Z,29.92
2022-08-03T18:39:02.341Z,29.88
2022-08-03T18:41:34.794Z,29.84
2022-08-03T18:44:08.283Z,29.80
2022-08-03T18:47:07.172Z,29.74
2022-08-03T18:49:49.540Z,29.70
2022-08-03T18:52:27.575Z,29.69
2022-08-03T18:55:11.117Z,29.63
2022-08-03T18:58:05.209Z,29.53
2022-08-03T19:00:42.656Z,29.44
2022-08-03T19:03:25.034Z,29.29
2022-08-03T19:06:19.966Z,29.13
2022-08-03T19:08:55.679Z,28.96
2022-08-03T19:12:26.140Z,28.78
2022-08-03T19:14:28.429Z,28.74
2022-08-03T19:17:05.786Z,28.74
2022-08-03T19:19:44.035Z,28.59
2022-08-03T19:22:15.949Z,28.41
2022-08-03T19:24:47.867Z,28.30
2022-08-03T19:27:17.387Z,28.23
2022-08-03T19:29:58.906Z,28.12
2022-08-03T19:32:30.295Z,28.05
2022-08-03T19:35:00.378Z,28.05
2022-08-03T19:37:33.261Z,28.07
2022-08-03T19:40:10.885Z,28.12
2022-08-03T19:42:46.577Z,28.13
2022-08-03T19:45:22.348Z,28.13
2022-08-03T19:48:14.407Z,28.16
2022-08-03T19:50:44.733Z,28.18
2022-08-03T19:53:15.128Z,28.14
2022-08-03T19:55:49.016Z,28.07
2022-08-03T19:58:24.555Z,27.94
2022-08-03T20:00:57.368Z,27.88
2022-08-03T20:03:42.984Z,27.81
2022-08-03T20:06:13.006Z,27.77
2022-08-03T20:08:51.426Z,27.75
2022-08-03T20:14:11.732Z,27.22
2022-08-03T20:16:42.738Z,27.03
2022-08-03T20:19:14.306Z,27.00
2022-08-03T20:21:46.205Z,26.97
2022-08-03T20:24:24.569Z,26.95
2022-08-03T20:26:58.159Z,26.85
2022-08-03T20:30:05.406Z,26.84
2022-08-03T20:32:29.852Z,26.80
2022-08-03T20:35:00.753Z,26.81
2022-08-03T20:37:30.515Z,26.83
2022-08-03T20:40:01.139Z,26.78
2022-08-03T20:42:29.603Z,26.68
2022-08-03T20:45:05.584Z,26.57
2022-08-03T20:47:50.677Z,26.46
2022-08-03T20:50:31.615Z,26.46
2022-08-03T20:53:02.573Z,26.48
2022-08-03T20:56:01.917Z,26.46
2022-08-03T20:58:31.929Z,26.46
2022-08-03T21:01:02.281Z,26.45
2022-08-03T21:03:41.136Z,26.41
2022-08-03T21:06:27.873Z,26.38
2022-08-03T21:09:04.067Z,26.31
2022-08-03T21:11:53.242Z,26.16
2022-08-03T21:13:03.677Z,27.67
2022-08-03T21:14:26.435Z,25.93
2022-08-03T21:16:56.953Z,25.78
2022-08-03T21:19:31.427Z,25.76
2022-08-03T21:22:00.899Z,25.63
2022-08-03T21:24:31.715Z,25.50
2022-08-03T21:27:02.080Z,25.49
2022-08-03T21:29:31.419Z,25.54
2022-08-03T21:32:00.965Z,25.57
2022-08-03T21:34:30.595Z,25.59
2022-08-03T21:36:59.048Z,25.61
2022-08-03T21:39:27.586Z,25.61
2022-08-03T21:41:56.307Z,25.49
2022-08-03T21:44:28.960Z,25.30
2022-08-03T21:46:59.407Z,25.10
2022-08-03T21:50:02.661Z,24.98
2022-08-03T21:52:21.996Z,24.80
2022-08-03T21:54:52.066Z,24.65
2022-08-03T21:57:24.007Z,24.61
2022-08-03T21:59:57.005Z,24.47
2022-08-03T22:02:31.446Z,24.44
2022-08-03T22:05:05.058Z,24.37
2022-08-03T22:07:34.435Z,24.30
2022-08-03T22:10:05.518Z,24.24
2022-08-03T22:12:34.920Z,24.05
2022-08-03T22:15:07.697Z,23.89
2022-08-03T22:17:54.573Z,23.77
2022-08-03T22:20:26.728Z,23.59
2022-08-03T22:22:57.301Z,23.58
2022-08-03T22:25:29.961Z,23.55
2022-08-03T22:28:00.556Z,23.58
2022-08-03T22:30:31.684Z,23.57
2022-08-03T22:33:02.432Z,23.50
2022-08-03T22:35:32.912Z,23.50
2022-08-03T22:38:16.610Z,23.42
2022-08-03T22:40:46.032Z,23.36
2022-08-03T22:43:14.844Z,23.25
2022-08-03T22:46:10.171Z,23.21
2022-08-03T22:48:41.013Z,23.17
2022-08-03T22:51:10.641Z,23.11
2022-08-03T22:53:40.736Z,23.07
2022-08-03T22:56:09.564Z,23.06
2022-08-03T22:58:38.284Z,23.03
2022-08-03T23:01:10.205Z,23.05
2022-08-03T23:03:58.827Z,23.10
2022-08-03T23:06:33.908Z,23.11
2022-08-03T23:09:04.604Z,23.09
2022-08-03T23:11:38.093Z,23.12
2022-08-03T23:14:13.277Z,23.22
2022-08-03T23:16:45.364Z,23.27
2022-08-03T23:19:17.315Z,23.22
2022-08-03T23:22:02.239Z,23.13
2022-08-03T23:24:34.516Z,23.04
2022-08-03T23:27:04.769Z,22.96
2022-08-03T23:29:35.894Z,22.91
2022-08-03T23:32:07.338Z,22.89
2022-08-03T23:34:58.167Z,22.81
2022-08-03T23:37:27.191Z,22.81
2022-08-03T23:39:58.081Z,22.76
2022-08-03T23:42:27.454Z,22.63
2022-08-03T23:44:59.443Z,22.66
2022-08-03T23:47:47.074Z,22.59
2022-08-03T23:50:16.505Z,22.49
2022-08-03T23:52:56.895Z,22.49
2022-08-03T23:55:38.430Z,22.39
2022-08-03T23:58:16.221Z,22.50
